Beverly, New Jersey
Current Conditions -  °F | °C
As of 9:08 AM on Monday 24 Nov 2014 (Local Time) from KPNE Reporting Station
Overcast Overcast  
Wind Chill: 68°   Ceiling: 1700
Heat Index: 68°   Visibility: 10mi
Dew Point: 60°   Wind: 13mph
Humidity: 76%   Direction: 210°SSW
Pressure: 29.69"   Gusts: 20mph
Location:  40.07°N, 74.92°W
Report Text: KPNE 241408Z AUTO 21011G17KT 10SM BKN017 OVC023 20/16 A2969 RMK AO2 T02000156 TSNO
Loading
Personal Weather Stations






























Interactive Weather Map New forecast layout! Learn more

10-Day Weather Forecast

Advertisements
Track Severe Weather on mobile